EGGW/LTN METAR and TAF weather

Enter ICAO airport designator
Station Type Date Time Source
EGGW METAR 2021/10/22 19:20 UTC NOAA

EGGW 221920Z AUTO 27009KT 9999 NCD 10/08 Q1023


Station Type Date Time Source
EGGW Decoded METAR 2021/10/22 19:20 UTC NOAA

Luton Airport , United Kingdom (EGGW) 51-52N 000-22W
Oct 22, 2021 - 03:20 PM EDT / 2021.10.22 1920 UTC
Wind: from the W (270 degrees) at 10 MPH (9 KT):0
Visibility: greater than 7 mile(s):0
Temperature: 50 F (10 C)
Dew Point: 46 F (8 C)
Relative Humidity: 87%
Pressure (altimeter): 30.21 in. Hg (1023 hPa)
ob: EGGW 221920Z AUTO 27009KT 9999 NCD 10/08 Q1023
cycle: 19

Station Type Date Time Source
EGGW TAF 2021/10/22 18:09 UTC NOAA

TAF EGGW 221704Z 2218/2318 27012KT 9999 FEW040
BECMG 2223/2302 20005KT PROB40 2302/2308 8000

Example: see airport list